Time;durP1;ratioP1;P1;durP2;ratioP2;P2;SDS_P1;SDS_P2;PMS_P1;PMS_P2;Temp;Humidity;BMP_temperature;BMP_pressure;BME280_temperature;BME280_humidity;BME280_pressure;Samples;Min_cycle;Max_cycle;Signal;HPM_P1;HPM_P2
2023/12/04 00:02:01;;;;;;;24.23;16.58;;;0.40;99.90;;;;;;5036006;28;20400;-63
2023/12/04 00:04:28;;;;;;;25.05;17.50;;;0.30;99.90;;;;;;5035853;28;20075;-65
2023/12/04 00:06:54;;;;;;;24.05;15.57;;;0.40;99.90;;;;;;5035960;28;20434;-64
2023/12/04 00:09:21;;;;;;;24.42;16.70;;;0.30;99.90;;;;;;5035902;28;20351;-64
2023/12/04 00:11:47;;;;;;;27.17;17.25;;;0.30;99.90;;;;;;5036307;28;20045;-63
2023/12/04 00:14:13;;;;;;;;;;;0.50;99.90;;;;;;5035761;28;20466;-64
2023/12/04 00:16:39;;;;;;;26.00;16.35;;;0.50;99.90;;;;;;5035997;28;19955;-65
2023/12/04 00:19:06;;;;;;;;;;;0.50;99.90;;;;;;5036075;28;20048;-64
2023/12/04 00:21:33;;;;;;;27.20;17.38;;;0.50;99.90;;;;;;5068811;28;19920;-64
2023/12/04 00:23:59;;;;;;;28.88;18.00;;;0.30;99.90;;;;;;5035621;28;20071;-64
2023/12/04 00:26:26;;;;;;;27.48;17.00;;;0.50;99.90;;;;;;5035661;28;20052;-64
2023/12/04 00:28:52;;;;;;;27.60;17.17;;;0.30;99.90;;;;;;5035620;28;20423;-64
2023/12/04 00:31:18;;;;;;;28.98;18.77;;;0.30;99.90;;;;;;5052189;28;20049;-65
2023/12/04 00:33:44;;;;;;;28.38;17.35;;;0.40;99.90;;;;;;5035175;28;20106;-64
2023/12/04 00:36:11;;;;;;;25.50;16.13;;;0.50;99.90;;;;;;5052045;28;20041;-64
2023/12/04 00:38:37;;;;;;;27.02;17.10;;;0.50;99.90;;;;;;5035501;28;20048;-64
2023/12/04 00:41:04;;;;;;;30.08;19.58;;;0.50;99.90;;;;;;5035595;28;20159;-64
2023/12/04 00:43:30;;;;;;;29.40;18.65;;;0.20;99.90;;;;;;5035692;28;20491;-63
2023/12/04 00:45:57;;;;;;;32.90;21.30;;;0.40;99.90;;;;;;5035439;28;20373;-64
2023/12/04 00:48:23;;;;;;;25.40;15.93;;;0.30;99.90;;;;;;5034957;28;20057;-64
2023/12/04 00:50:51;;;;;;;24.75;15.52;;;0.50;99.90;;;;;;5052750;28;20469;-64
2023/12/04 00:53:17;;;;;;;27.13;18.02;;;0.30;99.90;;;;;;5052367;28;20041;-64
2023/12/04 00:55:44;;;;;;;24.67;14.90;;;0.50;99.90;;;;;;5035205;28;20467;-62
2023/12/04 00:58:10;;;;;;;26.38;17.20;;;0.30;99.90;;;;;;5033647;28;20369;-63
2023/12/04 01:00:36;;;;;;;34.83;16.45;;;0.40;99.90;;;;;;5035122;28;20065;-64
2023/12/04 01:03:03;;;;;;;27.52;16.15;;;0.70;99.90;;;;;;5034706;28;20056;-64
2023/12/04 01:05:29;;;;;;;28.23;18.42;;;0.50;99.90;;;;;;5034780;28;20370;-62
2023/12/04 01:07:55;;;;;;;25.48;16.02;;;0.50;99.90;;;;;;5035014;28;20056;-61
2023/12/04 01:10:22;;;;;;;25.35;15.35;;;0.70;99.90;;;;;;5034707;28;20554;-64
2023/12/04 01:12:48;;;;;;;27.65;17.08;;;0.40;99.90;;;;;;5034355;28;20458;-65
2023/12/04 01:15:15;;;;;;;30.90;17.15;;;0.50;99.90;;;;;;5034675;28;20064;-64
2023/12/04 01:17:41;;;;;;;27.35;16.50;;;0.70;99.90;;;;;;5034481;28;20048;-64
2023/12/04 01:20:08;;;;;;;27.00;16.50;;;0.50;99.90;;;;;;5034210;28;20057;-64
2023/12/04 01:22:34;;;;;;;25.20;15.32;;;0.50;99.90;;;;;;5033920;28;20048;-64
2023/12/04 01:25:00;;;;;;;26.85;15.82;;;0.70;99.90;;;;;;5034521;28;20079;-65
2023/12/04 01:27:27;;;;;;;31.75;18.25;;;0.70;99.90;;;;;;5052235;28;20061;-64
2023/12/04 01:29:53;;;;;;;24.65;16.20;;;0.60;99.90;;;;;;5034083;28;20052;-64
2023/12/04 01:32:19;;;;;;;25.60;16.30;;;0.60;99.90;;;;;;5034470;28;20051;-64
2023/12/04 01:34:46;;;;;;;26.55;15.65;;;0.50;99.90;;;;;;5052407;28;20044;-61
2023/12/04 01:37:12;;;;;;;25.75;15.57;;;0.50;99.90;;;;;;5034415;28;20045;-61
2023/12/04 01:39:38;;;;;;;27.35;15.90;;;0.60;99.90;;;;;;5067268;28;20052;-62
2023/12/04 01:42:04;;;;;;;28.92;16.52;;;0.60;99.90;;;;;;5034237;28;20053;-61
2023/12/04 01:44:31;;;;;;;26.80;16.13;;;0.40;99.90;;;;;;5066952;28;20052;-61
2023/12/04 01:46:57;;;;;;;29.70;17.48;;;0.40;99.90;;;;;;5034154;28;20059;-61
2023/12/04 01:49:24;;;;;;;24.35;15.88;;;0.60;99.90;;;;;;5051395;28;20057;-61
2023/12/04 01:51:50;;;;;;;29.33;17.63;;;0.40;99.90;;;;;;5067304;28;20060;-61
2023/12/04 01:54:17;;;;;;;25.98;15.32;;;0.60;99.90;;;;;;5051158;28;20358;-61
2023/12/04 01:56:44;;;;;;;25.98;15.85;;;0.40;99.90;;;;;;5033973;28;20426;-62
2023/12/04 01:59:10;;;;;;;23.80;14.88;;;0.50;99.90;;;;;;5051306;28;20056;-62
2023/12/04 02:01:37;;;;;;;27.85;16.83;;;0.60;99.90;;;;;;5067084;28;20056;-62
2023/12/04 02:04:04;;;;;;;27.60;15.60;;;0.40;99.90;;;;;;5033478;28;20049;-62
2023/12/04 02:06:30;;;;;;;25.95;15.82;;;0.40;99.90;;;;;;5033924;28;20052;-62
2023/12/04 02:08:57;;;;;;;;;;;0.50;99.90;;;;;;5033650;28;20055;-65
2023/12/04 02:11:24;;;;;;;27.00;15.25;;;0.50;99.90;;;;;;5033907;28;20407;-64
2023/12/04 02:13:50;;;;;;;24.05;13.82;;;0.60;99.90;;;;;;5033389;28;20479;-65
2023/12/04 02:16:19;;;;;;;25.75;14.15;;;0.60;99.90;;;;;;5066736;28;20049;-65
2023/12/04 02:18:46;;;;;;;22.55;13.68;;;0.50;99.90;;;;;;5033642;28;20049;-62
2023/12/04 02:21:13;;;;;;;25.38;14.55;;;0.50;99.90;;;;;;5066616;28;20045;-62
2023/12/04 02:23:39;;;;;;;24.55;15.10;;;0.50;99.90;;;;;;5033459;28;20060;-62
2023/12/04 02:26:13;;;;;;;25.90;14.77;;;0.50;99.90;;;;;;5066754;28;20053;-62
2023/12/04 02:28:41;;;;;;;24.75;13.77;;;0.60;99.90;;;;;;5050916;28;20044;-62
2023/12/04 02:31:08;;;;;;;24.95;16.15;;;0.50;99.90;;;;;;5033845;28;20049;-65
2023/12/04 02:33:35;;;;;;;23.65;13.32;;;0.50;99.90;;;;;;5033214;28;20056;-62
2023/12/04 02:36:03;;;;;;;25.98;13.82;;;0.50;99.90;;;;;;5049864;28;20059;-62
2023/12/04 02:38:30;;;;;;;25.65;15.40;;;0.70;99.90;;;;;;5033386;28;20427;-63
2023/12/04 02:40:56;;;;;;;23.88;14.32;;;0.50;99.90;;;;;;5066449;28;20057;-62
2023/12/04 02:43:23;;;;;;;24.20;14.18;;;0.70;99.90;;;;;;5033481;28;20466;-62
2023/12/04 02:45:49;;;;;;;24.25;15.15;;;0.50;99.90;;;;;;5033182;28;20053;-63
2023/12/04 02:48:15;;;;;;;;;;;0.60;99.90;;;;;;5030123;28;20053;-62
2023/12/04 02:50:42;;;;;;;24.88;14.13;;;0.50;99.90;;;;;;5030127;28;19928;-63
2023/12/04 02:53:08;;;;;;;23.25;15.50;;;0.70;99.90;;;;;;5062590;28;20045;-63
2023/12/04 02:55:35;;;;;;;21.60;13.98;;;0.60;99.90;;;;;;5046586;28;20052;-63
2023/12/04 02:58:01;;;;;;;21.95;14.07;;;0.60;99.90;;;;;;5029953;28;20053;-63
2023/12/04 03:00:27;;;;;;;23.80;14.07;;;0.60;99.90;;;;;;5062765;28;20053;-63
2023/12/04 03:02:54;;;;;;;25.23;14.15;;;0.60;99.90;;;;;;5063038;28;20377;-62
2023/12/04 03:05:20;;;;;;;26.52;14.95;;;0.80;99.90;;;;;;5030154;28;20049;-63
2023/12/04 03:07:46;;;;;;;27.00;15.73;;;0.70;99.90;;;;;;5063305;28;20049;-63
2023/12/04 03:10:13;;;;;;;25.00;14.10;;;0.80;99.90;;;;;;5046143;28;20053;-63
2023/12/04 03:12:39;;;;;;;25.83;14.75;;;0.70;99.90;;;;;;5062451;28;20053;-62
2023/12/04 03:15:06;;;;;;;24.15;13.48;;;0.90;99.90;;;;;;5046421;28;20045;-62
2023/12/04 03:17:32;;;;;;;22.92;13.98;;;0.80;99.90;;;;;;5063103;28;20058;-62
2023/12/04 03:19:58;;;;;;;23.02;13.00;;;0.70;99.90;;;;;;5046370;28;20053;-63
2023/12/04 03:22:25;;;;;;;24.35;14.55;;;0.80;99.90;;;;;;5032988;28;20049;-63
2023/12/04 03:24:51;;;;;;;22.30;13.85;;;0.70;99.90;;;;;;5034653;28;20438;-62
2023/12/04 03:27:18;;;;;;;23.15;14.18;;;0.80;99.90;;;;;;5066934;28;20064;-62
2023/12/04 03:29:44;;;;;;;22.00;13.02;;;0.80;99.90;;;;;;5049437;28;20069;-62
2023/12/04 03:32:10;;;;;;;;;;;0.60;99.90;;;;;;5033314;28;20374;-63
2023/12/04 03:34:37;;;;;;;20.88;13.43;;;0.80;99.90;;;;;;5033297;28;19952;-63
2023/12/04 03:37:03;;;;;;;22.55;13.88;;;0.70;99.90;;;;;;5067291;28;20045;-63
2023/12/04 03:39:29;;;;;;;26.17;15.38;;;0.80;99.90;;;;;;5050586;28;20374;-63
2023/12/04 03:41:56;;;;;;;22.25;13.65;;;0.70;99.90;;;;;;5067059;28;20041;-63
2023/12/04 03:44:22;;;;;;;;;;;0.60;99.90;;;;;;5049902;28;20057;-64
2023/12/04 03:46:48;;;;;;;22.92;13.80;;;0.70;99.90;;;;;;5033664;28;19921;-63
2023/12/04 03:49:15;;;;;;;;;;;0.70;99.90;;;;;;5066127;28;20053;-63
2023/12/04 03:51:41;;;;;;;20.70;11.65;;;0.60;99.90;;;;;;5034189;28;19921;-62
2023/12/04 03:54:07;;;;;;;21.15;12.93;;;0.80;99.90;;;;;;5065929;28;20060;-63
2023/12/04 03:56:33;;;;;;;;;;;0.80;99.90;;;;;;5049948;28;20113;-63
2023/12/04 03:59:00;;;;;;;23.23;13.90;;;0.80;99.90;;;;;;5032934;28;19928;-63
2023/12/04 04:01:26;;;;;;;21.55;13.18;;;0.70;99.90;;;;;;5065954;28;20052;-62
2023/12/04 04:03:53;;;;;;;21.30;12.02;;;0.80;99.90;;;;;;5030629;28;20140;-63
2023/12/04 04:06:20;;;;;;;20.83;12.13;;;0.60;99.90;;;;;;5033630;28;20064;-63
2023/12/04 04:08:46;;;;;;;22.88;13.63;;;0.70;99.90;;;;;;5032425;28;20060;-64
2023/12/04 04:11:12;;;;;;;21.63;12.57;;;0.80;99.90;;;;;;5033080;28;20140;-63
2023/12/04 04:13:39;;;;;;;21.80;13.10;;;0.80;99.90;;;;;;5033187;28;20057;-63
2023/12/04 04:16:06;;;;;;;23.20;13.80;;;0.70;99.90;;;;;;5032924;28;20048;-63
2023/12/04 04:18:32;;;;;;;21.35;12.25;;;0.70;99.90;;;;;;5032695;28;20077;-63
2023/12/04 04:20:58;;;;;;;23.52;14.07;;;0.80;99.90;;;;;;5033428;28;20055;-63
2023/12/04 04:23:25;;;;;;;18.73;11.93;;;0.70;99.90;;;;;;5032295;28;20148;-63
2023/12/04 04:25:51;;;;;;;;;;;0.80;99.90;;;;;;5032790;28;20477;-63
2023/12/04 04:28:17;;;;;;;21.38;13.23;;;0.60;99.90;;;;;;5032349;28;20000;-63
2023/12/04 04:30:43;;;;;;;;;;;0.70;99.90;;;;;;5049203;28;20418;-63
2023/12/04 04:33:11;;;;;;;22.88;13.18;;;0.60;99.90;;;;;;5048161;28;19921;-63
2023/12/04 04:35:37;;;;;;;21.45;14.00;;;0.70;99.90;;;;;;5033451;28;20045;-63
2023/12/04 04:38:04;;;;;;;19.08;12.60;;;0.60;99.90;;;;;;5032193;28;20054;-63
2023/12/04 04:40:30;;;;;;;19.70;12.98;;;0.60;99.90;;;;;;5048256;28;20474;-63
2023/12/04 04:42:56;;;;;;;;;;;0.60;99.90;;;;;;5032580;28;20105;-63
2023/12/04 04:45:22;;;;;;;19.05;12.05;;;0.70;99.90;;;;;;5032206;28;19925;-63
2023/12/04 04:47:49;;;;;;;19.65;12.52;;;0.60;99.90;;;;;;5034376;28;20054;-63
2023/12/04 04:50:15;;;;;;;;;;;0.60;99.90;;;;;;5035401;28;20145;-63
2023/12/04 04:52:42;;;;;;;17.80;11.50;;;0.80;99.90;;;;;;5034830;28;19927;-63
2023/12/04 04:55:09;;;;;;;;;;;0.70;99.90;;;;;;5053134;28;20366;-63
2023/12/04 04:57:35;;;;;;;22.52;11.25;;;0.60;99.90;;;;;;5052695;28;20356;-62
2023/12/04 05:00:01;;;;;;;;;;;0.60;99.90;;;;;;5053175;28;20045;-63
2023/12/04 05:02:28;;;;;;;20.10;12.60;;;0.70;99.90;;;;;;5034748;28;19935;-62
2023/12/04 05:04:54;;;;;;;21.35;12.13;;;0.60;99.90;;;;;;5034893;28;20426;-62
2023/12/04 05:07:20;;;;;;;;;;;0.80;99.90;;;;;;5053395;28;20057;-63
2023/12/04 05:09:46;;;;;;;18.45;10.90;;;0.70;99.90;;;;;;5052124;28;20368;-63
2023/12/04 05:12:13;;;;;;;18.45;12.15;;;0.80;99.90;;;;;;5051985;28;20041;-63
2023/12/04 05:14:39;;;;;;;19.80;11.93;;;0.70;99.90;;;;;;5034578;28;20053;-62
2023/12/04 05:17:05;;;;;;;;;;;0.80;99.90;;;;;;5035190;28;20068;-62
2023/12/04 05:19:31;;;;;;;18.65;11.05;;;0.70;99.90;;;;;;5034569;28;19920;-62
2023/12/04 05:21:58;;;;;;;;;;;0.70;99.90;;;;;;5052008;28;20045;-62
2023/12/04 05:24:24;;;;;;;19.27;11.60;;;0.70;99.90;;;;;;5034519;28;19932;-63
2023/12/04 05:26:50;;;;;;;17.77;11.38;;;0.70;99.90;;;;;;5052559;28;20053;-62
2023/12/04 05:29:17;;;;;;;20.80;11.45;;;0.70;99.90;;;;;;5034397;28;20068;-62
2023/12/04 05:31:43;;;;;;;;;;;0.70;99.90;;;;;;5052475;28;20060;-63
2023/12/04 05:34:09;;;;;;;19.98;11.70;;;0.60;99.90;;;;;;5051778;28;19924;-62
2023/12/04 05:36:36;;;;;;;;;;;0.70;99.90;;;;;;5034648;28;20485;-63
2023/12/04 05:39:04;;;;;;;17.90;11.27;;;0.70;99.90;;;;;;5034253;28;20015;-63
2023/12/04 05:41:30;;;;;;;17.42;10.05;;;0.70;99.90;;;;;;5051900;28;20049;-63
2023/12/04 05:43:57;;;;;;;17.27;11.13;;;0.70;99.90;;;;;;5051203;28;20075;-64
2023/12/04 05:46:23;;;;;;;18.17;11.63;;;0.70;99.90;;;;;;5051738;28;20449;-62
2023/12/04 05:48:49;;;;;;;18.95;11.80;;;0.80;99.90;;;;;;5051211;28;20048;-62
2023/12/04 05:51:16;;;;;;;;;;;0.90;99.90;;;;;;5052168;28;20049;-62
2023/12/04 05:53:42;;;;;;;18.15;11.32;;;0.90;99.90;;;;;;5051236;28;19931;-62
2023/12/04 05:56:09;;;;;;;15.98;10.85;;;0.80;99.90;;;;;;5034364;28;20053;-63
2023/12/04 05:58:35;;;;;;;20.55;12.73;;;0.90;99.90;;;;;;5051698;28;20048;-63
2023/12/04 06:01:02;;;;;;;;;;;0.80;99.90;;;;;;5051782;28;20057;-62
2023/12/04 06:03:28;;;;;;;17.85;10.98;;;0.70;99.90;;;;;;5057087;28;19940;-63
2023/12/04 06:05:55;;;;;;;17.20;9.80;;;0.70;99.90;;;;;;5055372;28;20041;-63
2023/12/04 06:08:21;;;;;;;18.27;11.63;;;0.60;99.90;;;;;;5033948;28;20048;-63
2023/12/04 06:10:47;;;;;;;;;;;0.70;99.90;;;;;;5034115;28;20048;-63
2023/12/04 06:13:14;;;;;;;16.25;10.38;;;0.70;99.90;;;;;;5051080;28;19924;-63
2023/12/04 06:15:40;;;;;;;16.75;11.13;;;0.60;99.90;;;;;;5051069;28;20052;-63
2023/12/04 06:18:06;;;;;;;14.98;9.57;;;0.70;99.90;;;;;;5033980;28;20350;-62
2023/12/04 06:20:33;;;;;;;17.30;11.05;;;0.60;99.90;;;;;;5054973;28;20120;-63
2023/12/04 06:22:59;;;;;;;18.85;10.80;;;0.60;99.90;;;;;;5050301;28;20484;-63
2023/12/04 06:25:26;;;;;;;16.88;12.73;;;0.70;99.90;;;;;;5053184;28;20360;-63
2023/12/04 06:27:52;;;;;;;15.52;11.30;;;0.70;99.90;;;;;;5051424;28;20437;-64
2023/12/04 06:30:19;;;;;;;15.05;9.95;;;0.60;99.90;;;;;;5066420;28;20052;-64
2023/12/04 06:32:46;;;;;;;16.95;11.07;;;0.60;99.90;;;;;;5050773;28;20049;-63
2023/12/04 06:35:13;;;;;;;16.45;11.15;;;0.60;99.90;;;;;;5051480;28;20059;-63
2023/12/04 06:37:40;;;;;;;15.45;9.65;;;0.60;99.90;;;;;;5049769;28;20049;-64
2023/12/04 06:40:08;;;;;;;17.20;10.63;;;0.50;99.90;;;;;;5033903;28;20053;-64
2023/12/04 06:42:35;;;;;;;15.23;10.23;;;0.70;99.90;;;;;;5032654;28;20464;-63
2023/12/04 06:45:02;;;;;;;17.17;9.93;;;0.60;99.90;;;;;;5050656;28;20045;-63
2023/12/04 06:47:31;;;;;;;14.52;9.57;;;0.60;99.90;;;;;;5033221;28;20052;-63
2023/12/04 06:49:57;;;;;;;16.33;10.70;;;0.70;99.90;;;;;;5049003;28;20055;-62
2023/12/04 06:52:23;;;;;;;14.60;9.18;;;0.70;99.90;;;;;;5066220;28;20049;-63
2023/12/04 06:54:50;;;;;;;13.77;9.27;;;0.70;99.90;;;;;;5033866;28;20053;-62
2023/12/04 06:57:16;;;;;;;14.15;9.43;;;0.70;99.90;;;;;;5053301;28;20053;-63
2023/12/04 06:59:43;;;;;;;14.45;9.38;;;0.60;99.90;;;;;;5035073;28;20052;-64
2023/12/04 07:02:09;;;;;;;16.80;10.60;;;0.70;99.90;;;;;;5036243;28;20053;-64
2023/12/04 07:04:36;;;;;;;16.02;9.95;;;0.70;99.90;;;;;;5054986;28;20057;-63
2023/12/04 07:07:05;;;;;;;15.05;9.73;;;0.70;99.90;;;;;;5053949;28;20056;-63
2023/12/04 07:09:34;;;;;;;13.45;8.80;;;0.70;99.90;;;;;;5036498;28;20084;-64
2023/12/04 07:12:02;;;;;;;14.52;9.60;;;0.70;99.90;;;;;;5054556;28;20053;-63
2023/12/04 07:14:28;;;;;;;14.02;8.38;;;0.60;99.90;;;;;;5054391;28;20049;-63
2023/12/04 07:16:55;;;;;;;15.52;9.25;;;0.70;99.90;;;;;;5069415;28;20106;-63
2023/12/04 07:19:22;;;;;;;14.55;9.48;;;0.70;99.90;;;;;;5066153;28;20555;-63
2023/12/04 07:21:49;;;;;;;13.35;9.02;;;0.70;99.90;;;;;;5054901;28;20063;-63
2023/12/04 07:24:16;;;;;;;11.23;8.38;;;0.80;99.90;;;;;;5037868;28;20115;-63
2023/12/04 07:26:42;;;;;;;13.73;8.68;;;0.80;99.90;;;;;;5056477;28;20049;-63
2023/12/04 07:29:09;;;;;;;14.93;9.70;;;0.80;99.90;;;;;;5063442;28;20060;-64
2023/12/04 07:31:35;;;;;;;11.35;7.78;;;0.80;99.90;;;;;;5079570;28;20044;-63
2023/12/04 07:34:01;;;;;;;14.20;9.07;;;0.80;99.90;;;;;;5052821;28;20055;-64
2023/12/04 07:36:28;;;;;;;13.02;8.45;;;0.80;99.90;;;;;;5053919;28;20044;-63
2023/12/04 07:38:54;;;;;;;12.50;9.10;;;0.70;99.90;;;;;;5036570;28;20041;-64
2023/12/04 07:41:24;;;;;;;12.48;8.07;;;0.80;99.90;;;;;;5037153;28;20045;-63
2023/12/04 07:43:51;;;;;;;14.38;8.75;;;0.80;99.90;;;;;;5037756;28;20067;-63
2023/12/04 07:46:17;;;;;;;12.45;8.57;;;0.80;99.90;;;;;;5055039;28;20546;-63
2023/12/04 07:48:43;;;;;;;11.85;8.63;;;0.90;99.90;;;;;;5037287;28;20053;-64
2023/12/04 07:51:10;;;;;;;12.23;8.30;;;0.80;99.90;;;;;;5054685;28;20401;-64
2023/12/04 07:53:36;;;;;;;11.35;8.25;;;0.90;99.90;;;;;;5055029;28;20044;-63
2023/12/04 07:56:03;;;;;;;11.23;7.75;;;0.90;99.90;;;;;;5036966;28;20060;-64
2023/12/04 07:58:31;;;;;;;11.02;7.85;;;0.90;99.90;;;;;;5054243;28;20105;-62
2023/12/04 08:00:58;;;;;;;13.13;8.98;;;0.90;99.90;;;;;;5054706;28;20045;-63
2023/12/04 08:03:24;;;;;;;12.73;7.35;;;0.90;99.90;;;;;;5036994;28;20048;-62
2023/12/04 08:05:51;;;;;;;12.75;8.10;;;0.90;99.90;;;;;;5054198;28;20099;-62
2023/12/04 08:08:18;;;;;;;11.23;7.75;;;0.90;99.90;;;;;;5036230;28;20049;-63
2023/12/04 08:10:44;;;;;;;12.25;7.88;;;0.90;99.90;;;;;;5036364;28;20060;-63
2023/12/04 08:13:11;;;;;;;12.38;8.32;;;0.90;99.90;;;;;;5053315;28;20385;-63
2023/12/04 08:15:37;;;;;;;12.70;7.78;;;0.90;99.90;;;;;;5053515;28;20045;-63
2023/12/04 08:18:03;;;;;;;11.23;7.82;;;1.00;99.90;;;;;;5052836;28;20369;-63
2023/12/04 08:20:29;;;;;;;10.98;7.13;;;1.00;99.90;;;;;;5036444;28;20449;-63
2023/12/04 08:22:56;;;;;;;10.75;7.32;;;1.00;99.90;;;;;;5053914;28;20056;-63
2023/12/04 08:25:22;;;;;;;12.02;7.45;;;0.90;99.90;;;;;;5053241;28;20052;-63
2023/12/04 08:27:49;;;;;;;11.25;7.78;;;0.90;99.90;;;;;;5053900;28;20071;-64
2023/12/04 08:30:16;;;;;;;11.23;6.95;;;0.90;99.90;;;;;;5053766;28;20049;-63
2023/12/04 08:32:42;;;;;;;11.13;7.13;;;1.00;99.90;;;;;;5053910;28;20067;-63
2023/12/04 08:35:09;;;;;;;10.50;7.22;;;1.00;99.90;;;;;;5053787;28;20049;-63
2023/12/04 08:37:35;;;;;;;12.90;7.35;;;1.10;99.90;;;;;;5057284;28;20049;-64
2023/12/04 08:40:02;;;;;;;9.68;6.00;;;1.00;99.90;;;;;;5039347;28;20067;-64
2023/12/04 08:42:30;;;;;;;9.60;6.57;;;1.10;99.90;;;;;;5062060;28;20048;-63
2023/12/04 08:44:56;;;;;;;9.50;6.55;;;1.10;99.90;;;;;;5059826;28;20114;-63
2023/12/04 08:47:22;;;;;;;11.02;7.60;;;1.10;99.90;;;;;;5035476;28;20488;-64
2023/12/04 08:49:48;;;;;;;;;;;1.10;99.90;;;;;;5053542;28;20060;-64
2023/12/04 08:52:15;;;;;;;11.88;6.93;;;1.20;99.90;;;;;;5053540;28;19927;-64
2023/12/04 08:54:42;;;;;;;9.05;6.60;;;1.20;99.90;;;;;;5053381;28;20045;-63
2023/12/04 08:57:08;;;;;;;10.85;7.03;;;1.20;99.90;;;;;;5053534;28;20049;-64
2023/12/04 08:59:35;;;;;;;10.73;7.13;;;1.20;99.90;;;;;;5052822;28;20155;-63
2023/12/04 09:02:04;;;;;;;9.52;6.47;;;1.30;99.90;;;;;;5053435;28;20056;-64
2023/12/04 09:04:34;;;;;;;9.85;6.32;;;1.30;99.90;;;;;;5035496;28;20061;-63
2023/12/04 09:07:00;;;;;;;10.50;6.63;;;1.30;99.90;;;;;;5052829;28;20508;-64
2023/12/04 09:09:26;;;;;;;9.98;7.53;;;1.30;99.90;;;;;;5035042;28;20053;-64
2023/12/04 09:11:53;;;;;;;9.73;6.18;;;1.40;99.90;;;;;;5053066;28;20044;-63
2023/12/04 09:14:19;;;;;;;11.60;6.78;;;1.30;99.90;;;;;;5035339;28;20044;-63
2023/12/04 09:16:45;;;;;;;10.20;7.35;;;1.40;99.90;;;;;;5052995;28;20044;-64
2023/12/04 09:19:11;;;;;;;9.77;6.97;;;1.40;99.90;;;;;;5051537;28;20048;-64
2023/12/04 09:21:39;;;;;;;11.35;6.82;;;1.40;99.90;;;;;;5052806;28;20048;-63
2023/12/04 09:24:05;;;;;;;10.43;6.75;;;1.50;99.90;;;;;;5053120;28;20059;-64
2023/12/04 09:26:31;;;;;;;10.68;6.72;;;1.50;99.90;;;;;;5035069;28;20045;-63
2023/12/04 09:28:58;;;;;;;10.88;6.00;;;1.60;99.90;;;;;;5052338;28;20049;-64
2023/12/04 09:31:24;;;;;;;7.97;5.53;;;1.70;99.90;;;;;;5053031;28;20052;-65
2023/12/04 09:33:50;;;;;;;8.07;5.82;;;1.70;99.90;;;;;;5035219;28;20095;-63
2023/12/04 09:36:17;;;;;;;8.77;5.75;;;1.70;99.90;;;;;;5034697;28;20044;-63
2023/12/04 09:38:43;;;;;;;10.02;6.90;;;1.70;99.90;;;;;;5051650;28;20541;-65
2023/12/04 09:41:12;;;;;;;8.07;5.88;;;1.80;99.90;;;;;;5035123;28;20040;-64
2023/12/04 09:43:38;;;;;;;10.23;6.70;;;1.80;99.90;;;;;;5034984;28;20056;-63
2023/12/04 09:46:05;;;;;;;8.55;6.45;;;1.80;99.90;;;;;;5034973;28;20057;-64
2023/12/04 09:48:33;;;;;;;10.38;7.35;;;1.80;99.90;;;;;;5047119;28;20650;-64
2023/12/04 09:51:00;;;;;;;9.43;6.50;;;1.70;99.90;;;;;;5032321;28;20060;-64
2023/12/04 09:53:27;;;;;;;10.00;6.65;;;1.80;99.90;;;;;;5031370;28;20053;-64
2023/12/04 09:55:56;;;;;;;9.88;6.53;;;1.90;99.90;;;;;;5032164;28;20057;-64
2023/12/04 09:58:26;;;;;;;9.00;6.72;;;2.00;99.90;;;;;;5031347;28;20045;-64
2023/12/04 10:00:54;;;;;;;10.68;6.25;;;2.00;99.90;;;;;;5046655;28;20044;-64
2023/12/04 10:03:21;;;;;;;9.27;6.07;;;2.10;99.90;;;;;;5034759;28;20052;-64
2023/12/04 10:05:48;;;;;;;8.80;6.82;;;2.10;99.90;;;;;;5051011;28;20049;-65
2023/12/04 10:08:16;;;;;;;8.93;6.47;;;2.10;99.90;;;;;;5050874;28;20056;-64
2023/12/04 10:10:43;;;;;;;10.07;7.03;;;2.20;99.90;;;;;;5046949;28;20049;-64
2023/12/04 10:13:09;;;;;;;8.43;5.68;;;2.10;99.90;;;;;;5031064;28;20053;-64
2023/12/04 10:15:49;;;;;;;9.73;6.90;;;2.10;99.90;;;;;;5047429;28;20414;-64
2023/12/04 10:18:30;;;;;;;10.10;6.70;;;2.10;99.90;;;;;;5031057;28;20457;-63
2023/12/04 10:20:57;;;;;;;8.35;6.47;;;2.10;99.90;;;;;;5031773;28;20041;-64
2023/12/04 10:23:36;;;;;;;10.13;6.18;;;2.10;99.90;;;;;;5031018;28;20105;-64
2023/12/04 10:26:04;;;;;;;8.52;6.20;;;2.10;99.90;;;;;;5047752;28;20061;-63
2023/12/04 10:28:30;;;;;;;8.38;5.82;;;2.00;99.90;;;;;;5030892;28;20057;-63
2023/12/04 10:30:56;;;;;;;10.85;6.50;;;2.10;99.90;;;;;;5047098;28;20057;-63
2023/12/04 10:33:27;;;;;;;10.55;7.05;;;2.10;99.90;;;;;;5030795;28;20114;-64
2023/12/04 10:35:53;;;;;;;9.07;6.18;;;2.10;99.90;;;;;;5030651;28;20045;-64
2023/12/04 10:38:19;;;;;;;9.32;5.88;;;2.10;99.90;;;;;;5031608;28;20470;-64
2023/12/04 10:40:46;;;;;;;9.00;6.28;;;2.10;99.90;;;;;;5031658;28;20053;-64
2023/12/04 10:43:15;;;;;;;9.15;6.50;;;2.10;99.90;;;;;;5030925;28;20140;-63
2023/12/04 10:45:43;;;;;;;10.07;6.82;;;2.10;99.90;;;;;;5030575;28;20064;-64
2023/12/04 10:48:11;;;;;;;11.40;6.75;;;2.00;99.90;;;;;;5030063;28;20485;-64
2023/12/04 10:50:38;;;;;;;9.30;6.22;;;2.10;99.90;;;;;;5030502;28;20053;-64
2023/12/04 10:53:05;;;;;;;8.82;6.40;;;2.00;99.90;;;;;;5030829;28;20067;-64
2023/12/04 10:55:32;;;;;;;10.20;7.55;;;2.00;99.90;;;;;;5031848;28;20050;-64
2023/12/04 10:58:01;;;;;;;8.30;5.80;;;2.10;99.90;;;;;;5031589;28;20061;-64
2023/12/04 11:00:30;;;;;;;10.57;7.00;;;2.10;99.90;;;;;;5032288;28;20658;-64
2023/12/04 11:03:04;;;;;;;7.50;6.00;;;2.00;99.90;;;;;;5050563;28;20045;-64
2023/12/04 11:05:33;;;;;;;9.23;6.63;;;2.00;99.90;;;;;;5050592;28;20055;-64
2023/12/04 11:08:02;;;;;;;9.30;6.70;;;2.10;99.90;;;;;;5050357;28;20053;-64
2023/12/04 11:10:31;;;;;;;9.20;6.60;;;2.10;99.90;;;;;;5051887;28;20063;-64
2023/12/04 11:13:14;;;;;;;11.70;7.15;;;2.10;99.90;;;;;;5047099;28;20049;-65
2023/12/04 11:15:45;;;;;;;10.00;6.10;;;2.10;99.90;;;;;;5010850;28;20042;-64
2023/12/04 11:18:14;;;;;;;9.43;6.47;;;2.20;99.90;;;;;;5027114;28;20046;-64
2023/12/04 11:20:50;;;;;;;8.65;6.00;;;2.20;99.90;;;;;;5031071;28;20076;-64
2023/12/04 11:23:17;;;;;;;9.60;6.32;;;2.20;99.90;;;;;;5049425;28;20045;-64
2023/12/04 11:25:45;;;;;;;10.35;6.93;;;2.30;99.90;;;;;;5050413;28;20110;-65
2023/12/04 11:28:12;;;;;;;8.88;6.10;;;2.30;99.90;;;;;;5051170;28;20060;-64
2023/12/04 11:30:39;;;;;;;10.27;7.38;;;2.30;99.90;;;;;;5032639;28;20652;-65
2023/12/04 11:33:05;;;;;;;9.75;6.57;;;2.30;99.90;;;;;;5038656;28;20052;-64
2023/12/04 11:35:33;;;;;;;11.52;6.63;;;2.20;99.90;;;;;;5044797;28;20059;-64
2023/12/04 11:38:00;;;;;;;9.18;6.47;;;2.30;99.90;;;;;;5040534;28;20041;-65
2023/12/04 11:40:27;;;;;;;10.00;6.90;;;2.30;99.90;;;;;;5030344;28;20073;-64
2023/12/04 11:42:54;;;;;;;9.75;6.05;;;2.30;99.90;;;;;;5035591;28;20465;-64
2023/12/04 11:45:20;;;;;;;8.27;6.32;;;2.30;99.90;;;;;;5034288;28;20057;-64
2023/12/04 11:47:57;;;;;;;8.95;6.22;;;2.40;99.90;;;;;;5034989;28;20072;-64
2023/12/04 11:50:27;;;;;;;9.43;7.72;;;2.50;99.90;;;;;;5047194;28;20053;-65
2023/12/04 11:52:54;;;;;;;9.00;7.32;;;2.50;99.90;;;;;;5053837;28;20156;-65
2023/12/04 11:55:22;;;;;;;8.90;6.57;;;2.60;99.90;;;;;;5037141;28;20049;-65
2023/12/04 11:57:50;;;;;;;8.48;6.10;;;2.60;99.90;;;;;;5036607;28;20047;-65
2023/12/04 12:00:18;;;;;;;7.88;5.75;;;2.60;99.90;;;;;;5036865;28;20067;-65
2023/12/04 12:02:52;;;;;;;10.40;6.93;;;2.60;99.90;;;;;;5037043;28;20060;-66
2023/12/04 12:05:22;;;;;;;9.68;6.75;;;2.60;99.90;;;;;;5054842;28;20339;-65
2023/12/04 12:07:49;;;;;;;7.97;5.85;;;2.60;99.90;;;;;;5036479;28;20040;-65
2023/12/04 12:10:16;;;;;;;9.40;6.28;;;2.60;99.90;;;;;;5062074;28;20057;-64
2023/12/04 12:12:43;;;;;;;9.40;6.25;;;2.60;99.90;;;;;;5036834;28;20074;-64
2023/12/04 12:15:13;;;;;;;8.73;5.47;;;2.70;99.90;;;;;;5036506;28;20060;-64
2023/12/04 12:17:41;;;;;;;8.88;6.00;;;2.60;99.90;;;;;;5020050;28;20057;-64
2023/12/04 12:20:09;;;;;;;9.65;6.35;;;2.60;99.90;;;;;;5036250;28;20045;-64
2023/12/04 12:22:37;;;;;;;8.45;6.28;;;2.50;99.90;;;;;;5036611;28;20095;-64
2023/12/04 12:25:22;;;;;;;9.13;6.45;;;2.50;99.90;;;;;;5036176;28;20057;-64
2023/12/04 12:27:50;;;;;;;8.02;6.00;;;2.50;99.90;;;;;;5036365;28;20056;-64
2023/12/04 12:30:16;;;;;;;8.18;6.18;;;2.50;99.90;;;;;;5036205;28;20061;-64
2023/12/04 12:32:42;;;;;;;9.48;6.85;;;2.50;99.90;;;;;;5036343;28;20071;-64
2023/12/04 12:35:09;;;;;;;8.85;7.53;;;2.50;99.90;;;;;;5036381;28;20389;-64
2023/12/04 12:37:35;;;;;;;9.43;6.15;;;2.40;99.90;;;;;;5040280;28;20049;-64
2023/12/04 12:40:04;;;;;;;8.27;6.03;;;2.50;99.90;;;;;;5061463;28;20040;-65
2023/12/04 12:42:32;;;;;;;8.52;6.25;;;2.50;99.90;;;;;;5053660;28;20461;-64
2023/12/04 12:45:01;;;;;;;9.10;6.75;;;2.40;99.90;;;;;;5035961;28;20043;-64
2023/12/04 12:47:27;;;;;;;7.50;5.78;;;2.50;99.90;;;;;;5035890;28;20060;-64
2023/12/04 12:49:53;;;;;;;8.90;5.90;;;2.50;99.90;;;;;;5035432;28;20045;-65